Arcola, Missouri
Current Conditions -  °F | °C
As of 2:52 AM on Friday 24 Oct 2014 (Local Time) from KSGF Reporting Station
Haze Haze  
Wind Chill: 51°   Ceiling: Unl
Heat Index: 51°   Visibility: 4mi
Dew Point: 50°   Wind: 6mph
Humidity: 96%   Direction: 190°S
Pressure: 30.11"   Gusts: NA
Location:  37.55°N, 93.88°W
Report Text: KSGF 240752Z 19005KT 4SM BR CLR 11/10 A3011 RMK AO2 SLP195 T01060100
Loading
Personal Weather Stations






























Interactive Weather Map
Tropical Storm Tracking
New forecast layout! Learn more

10-Day Weather Forecast

Advertisements
Track Severe Weather on mobile